createdAt,value
2023-01-20T00:01:04.726Z,2.40
2023-01-20T00:04:06.750Z,2.53
2023-01-20T00:07:08.474Z,2.13
2023-01-20T00:10:10.517Z,2.60
2023-01-20T00:13:13.373Z,2.57
2023-01-20T00:16:14.976Z,2.23
2023-01-20T00:19:16.697Z,2.10
2023-01-20T00:22:18.340Z,2.07
2023-01-20T00:25:19.936Z,2.27
2023-01-20T00:28:21.547Z,2.37
2023-01-20T00:31:24.416Z,2.23
2023-01-20T00:34:26.013Z,2.13
2023-01-20T00:37:27.539Z,2.37
2023-01-20T00:40:29.192Z,1.93
2023-01-20T00:43:31.011Z,2.00
2023-01-20T00:46:32.630Z,2.30
2023-01-20T00:49:34.277Z,2.50
2023-01-20T00:52:35.938Z,2.77
2023-01-20T00:55:37.575Z,2.30
2023-01-20T00:58:39.115Z,2.83
2023-01-20T01:01:40.759Z,2.30
2023-01-20T01:04:42.501Z,2.30
2023-01-20T01:07:44.205Z,2.43
2023-01-20T01:10:45.783Z,2.33
2023-01-20T01:13:47.427Z,2.50
2023-01-20T01:16:49.025Z,2.67
2023-01-20T01:19:53.995Z,2.80
2023-01-20T01:22:56.931Z,2.87
2023-01-20T01:25:58.640Z,2.30
2023-01-20T01:29:00.257Z,2.47
2023-01-20T01:32:01.951Z,2.70
2023-01-20T01:35:03.618Z,3.00
2023-01-20T01:38:05.243Z,2.30
2023-01-20T01:41:06.827Z,2.53
2023-01-20T01:44:09.991Z,3.13
2023-01-20T01:47:11.647Z,3.40
2023-01-20T01:50:15.364Z,3.07
2023-01-20T01:53:17.114Z,3.33
2023-01-20T01:56:18.728Z,2.90
2023-01-20T01:59:20.938Z,2.97
2023-01-20T02:02:24.284Z,3.00
2023-01-20T02:05:27.342Z,3.27
2023-01-20T02:08:28.918Z,2.67
2023-01-20T02:11:32.669Z,2.53
2023-01-20T02:14:35.958Z,2.80
2023-01-20T02:17:47.827Z,3.20
2023-01-20T02:21:08.412Z,2.33
2023-01-20T02:24:28.799Z,2.73
2023-01-20T02:27:33.358Z,2.70
2023-01-20T02:30:40.522Z,2.80
2023-01-20T02:33:48.168Z,3.03
2023-01-20T02:37:05.606Z,2.90
2023-01-20T02:40:18.093Z,3.87
2023-01-20T02:43:22.755Z,3.50
2023-01-20T02:46:26.624Z,3.20
2023-01-20T02:49:48.157Z,3.47
2023-01-20T02:52:51.963Z,3.23
2023-01-20T02:55:54.325Z,3.60
2023-01-20T02:58:58.197Z,4.17
2023-01-20T03:02:03.085Z,3.63
2023-01-20T03:05:10.543Z,2.10
2023-01-20T03:08:12.500Z,2.27
2023-01-20T03:11:14.700Z,2.03
2023-01-20T03:14:17.159Z,1.80
2023-01-20T03:17:19.531Z,2.70
2023-01-20T03:20:21.119Z,1.90
2023-01-20T03:23:22.791Z,2.00
2023-01-20T03:26:24.392Z,1.80
2023-01-20T03:29:26.104Z,1.97
2023-01-20T03:32:28.801Z,1.97
2023-01-20T03:35:31.142Z,1.60
2023-01-20T03:38:32.821Z,1.90
2023-01-20T03:41:40.459Z,2.13
2023-01-20T03:45:00.611Z,2.10
2023-01-20T03:48:08.088Z,1.87
2023-01-20T03:51:13.549Z,2.10
2023-01-20T03:54:18.346Z,2.27
2023-01-20T03:57:23.214Z,2.00
2023-01-20T04:00:26.707Z,2.07
2023-01-20T04:03:32.793Z,2.07
2023-01-20T04:06:35.229Z,7.17
2023-01-20T04:09:38.790Z,3.53
2023-01-20T04:12:40.337Z,3.00
2023-01-20T04:15:44.395Z,2.47
2023-01-20T04:18:47.792Z,2.57
2023-01-20T04:21:51.998Z,2.50
2023-01-20T04:25:14.670Z,2.60
2023-01-20T04:28:16.438Z,3.10
2023-01-20T04:31:29.470Z,2.57
2023-01-20T04:34:31.941Z,3.00
2023-01-20T04:37:33.579Z,3.30
2023-01-20T04:40:35.407Z,2.93
2023-01-20T04:43:37.003Z,3.47
2023-01-20T04:46:38.662Z,3.63
2023-01-20T04:49:40.334Z,5.03
2023-01-20T04:52:42.152Z,4.57
2023-01-20T04:55:43.774Z,3.60
2023-01-20T04:58:47.786Z,4.83
2023-01-20T05:01:49.442Z,4.90
2023-01-20T05:04:51.147Z,4.27
2023-01-20T05:07:53.355Z,4.33
2023-01-20T05:10:55.076Z,5.20
2023-01-20T05:13:56.639Z,5.30
2023-01-20T05:16:58.291Z,4.63
2023-01-20T05:19:59.847Z,4.53
2023-01-20T05:23:01.609Z,4.10
2023-01-20T05:26:03.263Z,4.10
2023-01-20T05:29:05.087Z,5.50
2023-01-20T05:32:06.793Z,4.87
2023-01-20T05:35:08.769Z,5.03
2023-01-20T05:38:10.441Z,5.43
2023-01-20T05:41:12.120Z,5.10
2023-01-20T05:44:14.139Z,5.27
2023-01-20T05:47:15.774Z,6.07
2023-01-20T05:50:17.441Z,5.20
2023-01-20T05:53:19.425Z,4.43
2023-01-20T05:56:21.241Z,5.97
2023-01-20T05:59:23.329Z,6.03
2023-01-20T06:02:25.011Z,6.40
2023-01-20T06:05:26.827Z,5.53
2023-01-20T06:08:28.497Z,5.10
2023-01-20T06:11:30.110Z,5.13
2023-01-20T06:14:31.762Z,5.40
2023-01-20T06:17:33.365Z,4.93
2023-01-20T06:20:34.959Z,5.27
2023-01-20T06:23:36.579Z,5.30
2023-01-20T06:26:38.142Z,3.87
2023-01-20T06:29:39.769Z,5.87
2023-01-20T06:32:41.354Z,6.50
2023-01-20T06:35:42.965Z,5.87
2023-01-20T06:38:50.446Z,6.40
2023-01-20T06:41:52.163Z,5.33
2023-01-20T06:44:53.815Z,4.57
2023-01-20T06:47:55.390Z,4.80
2023-01-20T06:51:04.238Z,5.57
2023-01-20T06:54:05.915Z,5.17
2023-01-20T06:57:07.741Z,5.23
2023-01-20T07:00:09.670Z,4.47
2023-01-20T07:03:13.960Z,3.97
2023-01-20T07:06:24.792Z,4.87
2023-01-20T07:09:26.397Z,4.37
2023-01-20T07:12:27.985Z,4.03
2023-01-20T07:15:29.590Z,5.40
2023-01-20T07:18:31.332Z,4.77
2023-01-20T07:21:32.960Z,4.17
2023-01-20T07:24:34.523Z,4.07
2023-01-20T07:27:36.073Z,4.00
2023-01-20T07:30:37.734Z,3.57
2023-01-20T07:33:39.534Z,3.90
2023-01-20T07:36:42.389Z,3.57
2023-01-20T07:39:44.047Z,3.83
2023-01-20T07:42:45.618Z,4.57
2023-01-20T07:45:47.239Z,3.53
2023-01-20T07:48:48.821Z,4.60
2023-01-20T07:51:50.415Z,3.33
2023-01-20T07:54:52.119Z,4.47
2023-01-20T07:57:53.763Z,4.53
2023-01-20T08:00:55.667Z,4.50
2023-01-20T08:03:57.868Z,4.27
2023-01-20T08:06:59.486Z,3.33
2023-01-20T08:10:01.066Z,3.10
2023-01-20T08:13:03.015Z,4.37
2023-01-20T08:16:06.410Z,3.90
2023-01-20T08:19:08.180Z,4.10
2023-01-20T08:22:10.565Z,4.30
2023-01-20T08:25:12.303Z,3.60
2023-01-20T08:28:14.050Z,3.90
2023-01-20T08:31:17.146Z,3.40
2023-01-20T08:34:18.946Z,4.40
2023-01-20T08:37:20.881Z,3.23
2023-01-20T08:40:22.513Z,3.70
2023-01-20T08:43:24.067Z,3.30
2023-01-20T08:46:25.860Z,3.50
2023-01-20T08:49:27.422Z,2.93
2023-01-20T08:52:29.059Z,3.83
2023-01-20T08:55:31.348Z,3.37
2023-01-20T08:58:33.725Z,4.00
2023-01-20T09:01:38.438Z,3.30
2023-01-20T09:04:40.112Z,3.70
2023-01-20T09:07:41.749Z,2.80
2023-01-20T09:10:43.662Z,3.80
2023-01-20T09:13:45.585Z,3.70
2023-01-20T09:16:47.252Z,3.97
2023-01-20T09:19:48.851Z,3.50
2023-01-20T09:22:50.501Z,3.67
2023-01-20T09:25:52.064Z,4.10
2023-01-20T09:28:53.774Z,5.90
2023-01-20T09:31:58.242Z,5.73
2023-01-20T09:35:00.008Z,4.70
2023-01-20T09:38:20.179Z,3.40
2023-01-20T09:41:42.159Z,2.27
2023-01-20T09:44:53.574Z,1.23
2023-01-20T09:48:02.984Z,1.37
2023-01-20T09:51:24.750Z,1.30
2023-01-20T09:54:28.382Z,1.27
2023-01-20T09:57:33.695Z,1.87
2023-01-20T10:00:35.448Z,1.40
2023-01-20T10:03:47.350Z,1.60
2023-01-20T10:06:51.568Z,1.47
2023-01-20T10:09:53.151Z,2.50
2023-01-20T10:13:03.659Z,2.10
2023-01-20T10:16:08.608Z,2.60
2023-01-20T10:19:16.308Z,2.60
2023-01-20T10:22:23.291Z,2.73
2023-01-20T10:25:30.801Z,3.33
2023-01-20T10:28:35.125Z,3.60
2023-01-20T10:31:58.358Z,57.00
2023-01-20T10:35:02.315Z,72.20
2023-01-20T10:38:06.647Z,7.30
2023-01-20T10:41:16.694Z,3.97
2023-01-20T10:44:19.271Z,5.13
2023-01-20T10:47:25.948Z,10.73
2023-01-20T10:50:32.590Z,11.07
2023-01-20T10:53:52.922Z,5.20
2023-01-20T10:56:55.665Z,3.83
2023-01-20T10:59:59.722Z,4.37
2023-01-20T11:03:02.364Z,2.20
2023-01-20T11:06:04.512Z,3.20
2023-01-20T11:09:19.584Z,2.00
2023-01-20T11:12:32.475Z,1.70
2023-01-20T11:15:36.708Z,8.03
2023-01-20T11:18:38.764Z,1.43
2023-01-20T11:21:41.539Z,7.93
2023-01-20T11:24:43.872Z,2.23
2023-01-20T11:27:46.237Z,5.87
2023-01-20T11:30:51.219Z,4.47
2023-01-20T11:33:57.074Z,13.37
2023-01-20T11:37:04.724Z,3.20
2023-01-20T11:40:32.389Z,2.50
2023-01-20T11:43:38.176Z,3.20
2023-01-20T11:46:39.736Z,3.60
2023-01-20T11:49:41.532Z,3.83
2023-01-20T11:52:45.761Z,2.80
2023-01-20T11:55:49.678Z,2.30
2023-01-20T11:58:59.803Z,2.77
2023-01-20T12:02:23.344Z,2.10
2023-01-20T12:05:28.175Z,1.93
2023-01-20T12:08:32.857Z,2.17
2023-01-20T12:11:37.052Z,1.43
2023-01-20T12:14:55.189Z,1.93
2023-01-20T12:17:56.814Z,1.60
2023-01-20T12:21:07.998Z,1.30
2023-01-20T12:24:53.087Z,2.30
2023-01-20T12:28:01.229Z,0.97
2023-01-20T12:31:10.389Z,0.83
2023-01-20T12:34:13.945Z,1.00
2023-01-20T12:37:30.598Z,1.87
2023-01-20T12:40:38.227Z,1.27
2023-01-20T12:43:53.519Z,1.90
2023-01-20T12:47:04.522Z,1.87
2023-01-20T12:50:16.516Z,1.10
2023-01-20T12:53:27.513Z,1.47
2023-01-20T12:56:52.979Z,1.27
2023-01-20T12:59:54.555Z,3.53
2023-01-20T13:03:14.674Z,1.87
2023-01-20T13:06:25.452Z,2.47
2023-01-20T13:09:45.852Z,2.30
2023-01-20T13:13:05.971Z,3.40
2023-01-20T13:16:18.960Z,1.70
2023-01-20T13:19:32.488Z,1.33
2023-01-20T13:22:35.852Z,1.90
2023-01-20T13:25:38.768Z,2.33
2023-01-20T13:28:49.840Z,1.20
2023-01-20T13:31:53.209Z,1.30
2023-01-20T13:34:55.009Z,2.67
2023-01-20T13:37:57.988Z,1.77
2023-01-20T13:41:03.352Z,1.87
2023-01-20T13:44:24.969Z,1.70
2023-01-20T13:47:50.444Z,1.57
2023-01-20T13:50:53.906Z,1.83
2023-01-20T13:54:15.756Z,4.07
2023-01-20T13:57:20.563Z,3.00
2023-01-20T14:00:22.608Z,3.57
2023-01-20T14:03:27.915Z,3.10
2023-01-20T14:06:29.658Z,3.77
2023-01-20T14:09:31.297Z,4.33
2023-01-20T14:12:39.584Z,4.40
2023-01-20T14:15:41.333Z,3.43
2023-01-20T14:18:43.108Z,3.63
2023-01-20T14:21:44.760Z,4.50
2023-01-20T14:24:47.425Z,1.73
2023-01-20T14:27:49.139Z,3.93
2023-01-20T14:31:04.693Z,1.83
2023-01-20T14:34:18.790Z,4.00
2023-01-20T14:37:24.342Z,3.20
2023-01-20T14:40:26.008Z,2.67
2023-01-20T14:43:30.858Z,2.83
2023-01-20T14:46:33.082Z,2.93
2023-01-20T14:49:36.481Z,4.50
2023-01-20T14:52:38.337Z,5.00
2023-01-20T14:55:40.905Z,6.33
2023-01-20T14:58:46.675Z,6.60
2023-01-20T15:01:55.514Z,8.50
2023-01-20T15:04:57.224Z,7.93
2023-01-20T15:08:15.343Z,9.03
2023-01-20T15:11:18.327Z,9.60
2023-01-20T15:14:30.593Z,4.00
2023-01-20T15:17:32.252Z,7.07
2023-01-20T15:20:34.971Z,6.83
2023-01-20T15:23:38.334Z,6.93
2023-01-20T15:26:40.017Z,8.13
2023-01-20T15:29:41.836Z,6.73
2023-01-20T15:32:43.377Z,7.50
2023-01-20T15:35:45.057Z,6.90
2023-01-20T15:38:47.074Z,11.03
2023-01-20T15:41:53.887Z,15.53
2023-01-20T15:44:55.518Z,8.60
2023-01-20T15:47:57.920Z,8.43
2023-01-20T15:50:59.584Z,5.13
2023-01-20T15:54:01.254Z,9.87
2023-01-20T15:57:02.841Z,9.27
2023-01-20T16:00:06.628Z,6.67
2023-01-20T16:03:13.700Z,10.77
2023-01-20T16:06:16.357Z,1.77
2023-01-20T16:09:29.772Z,1.80
2023-01-20T16:12:31.672Z,2.67
2023-01-20T16:15:33.291Z,7.67
2023-01-20T16:18:34.917Z,6.30
2023-01-20T16:21:36.776Z,6.63
2023-01-20T16:24:38.426Z,2.17
2023-01-20T16:27:40.165Z,2.37
2023-01-20T16:30:42.162Z,1.40
2023-01-20T16:33:43.806Z,2.13
2023-01-20T16:36:45.485Z,2.77
2023-01-20T16:39:47.075Z,4.03
2023-01-20T16:42:48.859Z,21.63
2023-01-20T16:45:54.533Z,16.70
2023-01-20T16:49:03.523Z,18.80
2023-01-20T16:52:05.252Z,11.67
2023-01-20T16:55:07.047Z,15.97
2023-01-20T16:58:08.864Z,25.80
2023-01-20T17:01:13.767Z,14.37
2023-01-20T17:04:15.488Z,6.07
2023-01-20T17:07:17.140Z,5.07
2023-01-20T17:10:18.997Z,6.83
2023-01-20T17:13:20.640Z,5.80
2023-01-20T17:16:22.927Z,5.90
2023-01-20T17:19:25.783Z,12.20
2023-01-20T17:22:27.349Z,2.80
2023-01-20T17:25:28.958Z,4.87
2023-01-20T17:28:30.570Z,2.00
2023-01-20T17:31:34.552Z,1.80
2023-01-20T17:34:36.387Z,18.73
2023-01-20T17:37:37.957Z,5.63
2023-01-20T17:40:39.536Z,7.03
2023-01-20T17:43:43.406Z,5.10
2023-01-20T17:46:47.710Z,11.87
2023-01-20T17:49:49.305Z,21.50
2023-01-20T17:52:50.908Z,25.70
2023-01-20T17:56:03.037Z,26.70
2023-01-20T17:59:12.738Z,24.87
2023-01-20T18:02:14.513Z,21.97
2023-01-20T18:05:16.226Z,12.80
2023-01-20T18:08:17.835Z,13.53
2023-01-20T18:11:20.421Z,22.80
2023-01-20T18:14:22.067Z,23.43
2023-01-20T18:17:23.701Z,29.10
2023-01-20T18:20:25.412Z,34.47
2023-01-20T18:23:27.033Z,14.17
2023-01-20T18:26:29.790Z,20.93
2023-01-20T18:29:31.568Z,23.50
2023-01-20T18:32:33.107Z,14.43
2023-01-20T18:35:34.706Z,5.80
2023-01-20T18:38:36.292Z,3.37
2023-01-20T18:41:38.259Z,2.53
2023-01-20T18:44:39.921Z,3.17
2023-01-20T18:47:41.542Z,3.07
2023-01-20T18:50:43.246Z,3.37
2023-01-20T18:53:45.256Z,9.03
2023-01-20T18:56:47.168Z,3.90
2023-01-20T18:59:48.843Z,3.20
2023-01-20T19:02:51.221Z,3.73
2023-01-20T19:05:52.837Z,4.50
2023-01-20T19:08:55.413Z,4.10
2023-01-20T19:11:57.024Z,6.37
2023-01-20T19:14:58.701Z,6.10
2023-01-20T19:18:00.329Z,13.20
2023-01-20T19:21:05.571Z,10.93
2023-01-20T19:24:08.145Z,6.70
2023-01-20T19:27:09.883Z,4.67
2023-01-20T19:30:11.754Z,3.33
2023-01-20T19:33:16.220Z,5.60
2023-01-20T19:36:18.274Z,3.63
2023-01-20T19:39:20.455Z,3.10
2023-01-20T19:42:25.514Z,5.17
2023-01-20T19:45:40.347Z,6.90
2023-01-20T19:48:46.402Z,11.30
2023-01-20T19:51:48.028Z,9.17
2023-01-20T19:54:51.774Z,5.27
2023-01-20T19:57:55.136Z,6.67
2023-01-20T20:01:05.056Z,31.43
2023-01-20T20:04:08.553Z,16.53
2023-01-20T20:07:10.155Z,6.57
2023-01-20T20:10:11.853Z,6.67
2023-01-20T20:13:13.463Z,6.63
2023-01-20T20:16:15.199Z,7.17
2023-01-20T20:19:18.869Z,6.07
2023-01-20T20:22:20.577Z,5.83
2023-01-20T20:25:22.225Z,6.30
2023-01-20T20:28:24.422Z,5.73
2023-01-20T20:31:29.437Z,6.53
2023-01-20T20:34:31.446Z,6.20
2023-01-20T20:37:33.535Z,7.23
2023-01-20T20:40:35.339Z,7.77
2023-01-20T20:43:37.440Z,9.80
2023-01-20T20:46:39.465Z,5.83
2023-01-20T20:49:41.127Z,8.37
2023-01-20T20:52:42.733Z,10.53
2023-01-20T20:55:44.478Z,9.20
2023-01-20T20:59:00.484Z,8.13
2023-01-20T21:02:03.365Z,10.23
2023-01-20T21:05:06.225Z,9.80
2023-01-20T21:08:08.343Z,9.80
2023-01-20T21:11:11.276Z,9.97
2023-01-20T21:14:13.004Z,9.23
2023-01-20T21:17:14.712Z,9.00
2023-01-20T21:20:16.615Z,8.80
2023-01-20T21:23:18.390Z,8.23
2023-01-20T21:26:20.101Z,12.20
2023-01-20T21:29:21.760Z,19.33
2023-01-20T21:32:23.361Z,16.20
2023-01-20T21:35:25.077Z,15.30
2023-01-20T21:38:26.659Z,12.40
2023-01-20T21:41:28.275Z,12.17
2023-01-20T21:44:29.942Z,10.87
2023-01-20T21:47:31.856Z,12.77
2023-01-20T21:50:51.857Z,12.30
2023-01-20T21:53:53.669Z,12.00
2023-01-20T21:56:55.386Z,10.77
2023-01-20T21:59:56.942Z,9.70
2023-01-20T22:02:58.540Z,7.17
2023-01-20T22:06:02.460Z,6.40
2023-01-20T22:09:04.004Z,6.83
2023-01-20T22:12:05.746Z,5.47
2023-01-20T22:15:07.674Z,5.63
2023-01-20T22:18:09.358Z,2.37
2023-01-20T22:21:11.291Z,3.03
2023-01-20T22:24:12.974Z,3.40
2023-01-20T22:27:14.573Z,4.03
2023-01-20T22:30:16.511Z,3.50
2023-01-20T22:33:18.336Z,3.70
2023-01-20T22:36:20.758Z,4.17
2023-01-20T22:39:22.483Z,4.50
2023-01-20T22:42:24.170Z,5.33
2023-01-20T22:45:26.159Z,4.60
2023-01-20T22:48:27.988Z,3.57
2023-01-20T22:51:30.339Z,4.70
2023-01-20T22:54:31.921Z,5.50
2023-01-20T22:57:33.555Z,5.20
2023-01-20T23:00:35.179Z,5.40
2023-01-20T23:03:36.705Z,4.73
2023-01-20T23:06:39.338Z,8.40
2023-01-20T23:09:41.028Z,4.70
2023-01-20T23:12:42.576Z,5.90
2023-01-20T23:15:44.690Z,6.17
2023-01-20T23:18:46.397Z,6.80
2023-01-20T23:21:47.933Z,4.60
2023-01-20T23:24:49.768Z,4.90
2023-01-20T23:27:51.469Z,4.87
2023-01-20T23:30:58.481Z,5.27
2023-01-20T23:34:00.163Z,5.60
2023-01-20T23:37:01.723Z,5.03
2023-01-20T23:40:03.937Z,4.47
2023-01-20T23:43:05.572Z,4.10
2023-01-20T23:46:07.691Z,3.67
2023-01-20T23:49:09.774Z,3.70
2023-01-20T23:52:11.367Z,3.43
2023-01-20T23:55:13.012Z,3.60
2023-01-20T23:58:14.812Z,3.50
